WXM80 ListenWXM80 Stop

You find our weather info also at:

UK Metoffice

WeatherCloud

Weather Underground

Northeastern Weather Network

AWEKAS

Citizen Weather Observer Program (CWOP)

HAMweather, WeatherForYou, PWS Weather


Weather Underground History page Text

Daily Summary for February 27, 2017 Units:  Both    English   Metric
« Previous Day
Next Day »
Daily Weekly Monthly Yearly Custom
  High: Low: Average:
Temperature: 54.9 °F /  12.7 °C 30.0 °F /  -1.1 °C 42.6 °F /  5.9 °C
Dew Point: 37.7 °F /  3.2 °C 21.1 °F /  -6.1 °C 29.6 °F /  -1.3 °C
Humidity: 78 % 34 % 61 %
Wind Speed: 10.1 mph /  16.3 km/h - 3.8 mph /  6.1 km/h
Wind Gust: 16.1 mph /  25.9 km/h - -
Wind:- - SW
Pressure: 30.40 in /  1029.3 hPa 30.24 in /  1023.9 hPa -
Precipitation: 0.00 in /  0 mm    
Historical Graphs
 
 
Tabular Data for February 27, 2017
Time Temperature Dew Point Pressure Wind Wind Speed Wind Gust Humidity Rainfall Rate (Hourly)
00:01 33.2 °F /  0.7 °C 22.0 °F /  -5.6 °C 30.25 in /  1024.3 hPa SW 1.1 mph /  1.8 km/h 2.3 mph /  3.7 km/h 63 % 0.00 in /  0 mm
00:06 33.0 °F /  0.6 °C 21.8 °F /  -5.7 °C 30.24 in /  1023.9 hPa SW 1.4 mph /  2.3 km/h 3.5 mph /  5.6 km/h 63 % 0.00 in /  0 mm
00:11 32.8 °F /  0.4 °C 22.0 °F /  -5.6 °C 30.24 in /  1023.9 hPa SW 0.1 mph /  0.2 km/h 2.3 mph /  3.7 km/h 64 % 0.00 in /  0 mm
00:12 32.8 °F /  0.4 °C 22.0 °F /  -5.6 °C 30.24 in /  1023.9 hPa SW 0.6 mph /  1 km/h 1.2 mph /  1.9 km/h 64 % 0.00 in /  0 mm
00:17 32.6 °F /  0.3 °C 21.8 °F /  -5.7 °C 30.24 in /  1023.9 hPa Calm     64 % 0.00 in /  0 mm
00:22 32.6 °F /  0.3 °C 22.1 °F /  -5.5 °C 30.24 in /  1023.9 hPa Calm     65 % 0.00 in /  0 mm
00:27 32.4 °F /  0.2 °C 21.9 °F /  -5.6 °C 30.24 in /  1023.9 hPa SW 1.4 mph /  2.3 km/h 2.0 mph /  3.2 km/h 65 % 0.00 in /  0 mm
00:32 32.3 °F /  0.2 °C 21.8 °F /  -5.7 °C 30.25 in /  1024.3 hPa SW 0.2 mph /  0.3 km/h 1.2 mph /  1.9 km/h 65 % 0.00 in /  0 mm
00:37 32.3 °F /  0.2 °C 21.8 °F /  -5.7 °C 30.25 in /  1024.3 hPa Calm   2.3 mph /  3.7 km/h 65 % 0.00 in /  0 mm
00:43 32.2 °F /  0.1 °C 21.7 °F /  -5.7 °C 30.25 in /  1024.3 hPa SW 0.1 mph /  0.2 km/h 1.2 mph /  1.9 km/h 65 % 0.00 in /  0 mm
00:48 32.1 °F /  0.1 °C 22.0 °F /  -5.6 °C 30.25 in /  1024.3 hPa SW 0.7 mph /  1.1 km/h 2.0 mph /  3.2 km/h 66 % 0.00 in /  0 mm
00:53 32.0 °F /  0 °C 21.9 °F /  -5.6 °C 30.25 in /  1024.3 hPa SW 1.0 mph /  1.6 km/h 3.5 mph /  5.6 km/h 66 % 0.00 in /  0 mm
00:58 32.0 °F /  0 °C 22.3 °F /  -5.4 °C 30.25 in /  1024.3 hPa SW 1.1 mph /  1.8 km/h 5.8 mph /  9.3 km/h 67 % 0.00 in /  0 mm
01:03 31.9 °F /  -0.1 °C 22.2 °F /  -5.4 °C 30.26 in /  1024.6 hPa SW 1.4 mph /  2.3 km/h 3.5 mph /  5.6 km/h 67 % 0.00 in /  0 mm
01:08 31.9 °F /  -0.1 °C 22.2 °F /  -5.4 °C 30.26 in /  1024.6 hPa SW 1.8 mph /  2.9 km/h 3.5 mph /  5.6 km/h 67 % 0.00 in /  0 mm
01:13 31.8 °F /  -0.1 °C 22.1 °F /  -5.5 °C 30.27 in /  1024.9 hPa WSW 1.1 mph /  1.8 km/h 3.5 mph /  5.6 km/h 67 % 0.00 in /  0 mm
01:18 31.8 °F /  -0.1 °C 21.7 °F /  -5.7 °C 30.26 in /  1024.6 hPa WSW 0.5 mph /  0.8 km/h 3.5 mph /  5.6 km/h 66 % 0.00 in /  0 mm
01:23 31.8 °F /  -0.1 °C 21.7 °F /  -5.7 °C 30.27 in /  1024.9 hPa SW 0.9 mph /  1.4 km/h 4.6 mph /  7.4 km/h 66 % 0.00 in /  0 mm
01:28 31.8 °F /  -0.1 °C 21.7 °F /  -5.7 °C 30.26 in /  1024.6 hPa SW 1.0 mph /  1.6 km/h 1.2 mph /  1.9 km/h 66 % 0.00 in /  0 mm
01:33 31.8 °F /  -0.1 °C 21.7 °F /  -5.7 °C 30.27 in /  1024.9 hPa SW 0.2 mph /  0.3 km/h 2.3 mph /  3.7 km/h 66 % 0.00 in /  0 mm
01:38 31.8 °F /  -0.1 °C 21.7 °F /  -5.7 °C 30.27 in /  1024.9 hPa Calm   2.0 mph /  3.2 km/h 66 % 0.00 in /  0 mm
01:43 31.8 °F /  -0.1 °C 21.7 °F /  -5.7 °C 30.27 in /  1024.9 hPa SW 1.0 mph /  1.6 km/h 5.0 mph /  8 km/h 66 % 0.00 in /  0 mm
01:48 31.8 °F /  -0.1 °C 21.7 °F /  -5.7 °C 30.27 in /  1024.9 hPa SW 2.0 mph /  3.2 km/h 5.0 mph /  8 km/h 66 % 0.00 in /  0 mm
01:53 31.8 °F /  -0.1 °C 21.4 °F /  -5.9 °C 30.27 in /  1024.9 hPa Calm   2.0 mph /  3.2 km/h 65 % 0.00 in /  0 mm
01:55 31.8 °F /  -0.1 °C 21.4 °F /  -5.9 °C 30.27 in /  1024.9 hPa WSW 0.1 mph /  0.2 km/h 1.2 mph /  1.9 km/h 65 % 0.00 in /  0 mm
01:58 31.8 °F /  -0.1 °C 21.4 °F /  -5.9 °C 30.27 in /  1024.9 hPa Calm   1.2 mph /  1.9 km/h 65 % 0.00 in /  0 mm
02:03 31.8 °F /  -0.1 °C 21.4 °F /  -5.9 °C 30.27 in /  1024.9 hPa WSW 1.5 mph /  2.4 km/h 3.5 mph /  5.6 km/h 65 % 0.00 in /  0 mm
02:08 31.8 °F /  -0.1 °C 21.4 °F /  -5.9 °C 30.26 in /  1024.6 hPa Calm   1.2 mph /  1.9 km/h 65 % 0.00 in /  0 mm
02:13 31.8 °F /  -0.1 °C 21.4 °F /  -5.9 °C 30.27 in /  1024.9 hPa WSW 0.1 mph /  0.2 km/h 1.2 mph /  1.9 km/h 65 % 0.00 in /  0 mm
02:18 31.7 °F /  -0.2 °C 21.3 °F /  -5.9 °C 30.27 in /  1024.9 hPa Calm     65 % 0.00 in /  0 mm
02:23 31.7 °F /  -0.2 °C 21.3 °F /  -5.9 °C 30.27 in /  1024.9 hPa Calm     65 % 0.00 in /  0 mm
02:28 31.6 °F /  -0.2 °C 21.2 °F /  -6 °C 30.27 in /  1024.9 hPa Calm     65 % 0.00 in /  0 mm
02:33 31.5 °F /  -0.3 °C 21.4 °F /  -5.9 °C 30.27 in /  1024.9 hPa Calm     66 % 0.00 in /  0 mm
02:38 31.4 °F /  -0.3 °C 21.3 °F /  -5.9 °C 30.27 in /  1024.9 hPa Calm     66 % 0.00 in /  0 mm
02:43 31.4 °F /  -0.3 °C 21.3 °F /  -5.9 °C 30.27 in /  1024.9 hPa Calm     66 % 0.00 in /  0 mm
02:48 31.2 °F /  -0.4 °C 21.5 °F /  -5.8 °C 30.27 in /  1024.9 hPa Calm     67 % 0.00 in /  0 mm
02:53 31.1 °F /  -0.5 °C 21.4 °F /  -5.9 °C 30.27 in /  1024.9 hPa Calm     67 % 0.00 in /  0 mm
02:58 31.0 °F /  -0.6 °C 21.7 °F /  -5.7 °C 30.27 in /  1024.9 hPa Calm   1.2 mph /  1.9 km/h 68 % 0.00 in /  0 mm
03:03 30.8 °F /  -0.7 °C 21.5 °F /  -5.8 °C 30.27 in /  1024.9 hPa Calm     68 % 0.00 in /  0 mm
03:09 30.7 °F /  -0.7 °C 21.4 °F /  -5.9 °C 30.27 in /  1024.9 hPa Calm   1.2 mph /  1.9 km/h 68 % 0.00 in /  0 mm
03:14 30.5 °F /  -0.8 °C 21.2 °F /  -6 °C 30.27 in /  1024.9 hPa WSW 0.6 mph /  1 km/h 2.3 mph /  3.7 km/h 68 % 0.00 in /  0 mm
03:19 30.5 °F /  -0.8 °C 21.2 °F /  -6 °C 30.27 in /  1024.9 hPa Calm   2.3 mph /  3.7 km/h 68 % 0.00 in /  0 mm
03:24 30.3 °F /  -0.9 °C 21.3 °F /  -5.9 °C 30.28 in /  1025.3 hPa WSW 0.2 mph /  0.3 km/h 1.2 mph /  1.9 km/h 69 % 0.00 in /  0 mm
03:29 30.2 °F /  -1 °C 21.2 °F /  -6 °C 30.28 in /  1025.3 hPa WSW 1.5 mph /  2.4 km/h 3.5 mph /  5.6 km/h 69 % 0.00 in /  0 mm
03:34 30.1 °F /  -1.1 °C 21.5 °F /  -5.8 °C 30.28 in /  1025.3 hPa WSW 0.4 mph /  0.6 km/h 2.3 mph /  3.7 km/h 70 % 0.00 in /  0 mm
03:39 30.1 °F /  -1.1 °C 21.5 °F /  -5.8 °C 30.28 in /  1025.3 hPa SW 1.5 mph /  2.4 km/h 4.0 mph /  6.4 km/h 70 % 0.00 in /  0 mm
03:44 30.0 °F /  -1.1 °C 21.1 °F /  -6.1 °C 30.28 in /  1025.3 hPa SSW 1.3 mph /  2.1 km/h 3.5 mph /  5.6 km/h 69 % 0.00 in /  0 mm
03:49 30.1 °F /  -1.1 °C 21.2 °F /  -6 °C 30.29 in /  1025.6 hPa SSW 1.4 mph /  2.3 km/h 3.5 mph /  5.6 km/h 69 % 0.00 in /  0 mm
03:54 30.2 °F /  -1 °C 21.2 °F /  -6 °C 30.29 in /  1025.6 hPa SSW 1.7 mph /  2.7 km/h 3.5 mph /  5.6 km/h 69 % 0.00 in /  0 mm
03:59 30.3 °F /  -0.9 °C 21.3 °F /  -5.9 °C 30.29 in /  1025.6 hPa SW 2.9 mph /  4.7 km/h 4.0 mph /  6.4 km/h 69 % 0.00 in /  0 mm
04:04 30.5 °F /  -0.8 °C 21.5 °F /  -5.8 °C 30.29 in /  1025.6 hPa SW 1.1 mph /  1.8 km/h 3.5 mph /  5.6 km/h 69 % 0.00 in /  0 mm
04:09 30.6 °F /  -0.8 °C 21.3 °F /  -5.9 °C 30.29 in /  1025.6 hPa SSW 1.9 mph /  3.1 km/h 5.8 mph /  9.3 km/h 68 % 0.00 in /  0 mm
04:14 30.8 °F /  -0.7 °C 21.5 °F /  -5.8 °C 30.30 in /  1026 hPa SW 1.1 mph /  1.8 km/h 5.8 mph /  9.3 km/h 68 % 0.00 in /  0 mm
04:19 31.1 °F /  -0.5 °C 21.8 °F /  -5.7 °C 30.30 in /  1026 hPa SW 2.0 mph /  3.2 km/h 8.1 mph /  13 km/h 68 % 0.00 in /  0 mm
04:24 31.5 °F /  -0.3 °C 22.1 °F /  -5.5 °C 30.30 in /  1026 hPa SW 3.9 mph /  6.3 km/h 6.9 mph /  11.1 km/h 68 % 0.00 in /  0 mm
04:29 31.7 °F /  -0.2 °C 22.0 °F /  -5.6 °C 30.30 in /  1026 hPa SW 4.7 mph /  7.6 km/h 6.9 mph /  11.1 km/h 67 % 0.00 in /  0 mm
04:34 32.0 °F /  0 °C 21.9 °F /  -5.6 °C 30.31 in /  1026.3 hPa SSW 5.1 mph /  8.2 km/h 8.1 mph /  13 km/h 66 % 0.00 in /  0 mm
04:39 32.3 °F /  0.2 °C 22.2 °F /  -5.4 °C 30.30 in /  1026 hPa SSW 3.6 mph /  5.8 km/h 5.8 mph /  9.3 km/h 66 % 0.00 in /  0 mm
04:44 32.5 °F /  0.3 °C 22.4 °F /  -5.3 °C 30.31 in /  1026.3 hPa SSW 4.2 mph /  6.8 km/h 5.8 mph /  9.3 km/h 66 % 0.00 in /  0 mm
04:49 32.6 °F /  0.3 °C 22.5 °F /  -5.3 °C 30.31 in /  1026.3 hPa SSW 3.9 mph /  6.3 km/h 5.8 mph /  9.3 km/h 66 % 0.00 in /  0 mm
04:54 32.8 °F /  0.4 °C 22.7 °F /  -5.2 °C 30.32 in /  1026.6 hPa WSW 4.0 mph /  6.4 km/h 5.8 mph /  9.3 km/h 66 % 0.00 in /  0 mm
04:59 32.9 °F /  0.5 °C 23.1 °F /  -4.9 °C 30.32 in /  1026.6 hPa SSW 5.0 mph /  8 km/h 8.1 mph /  13 km/h 67 % 0.00 in /  0 mm
05:04 33.0 °F /  0.6 °C 23.2 °F /  -4.9 °C 30.32 in /  1026.6 hPa SSW 4.1 mph /  6.6 km/h 9.0 mph /  14.5 km/h 67 % 0.00 in /  0 mm
05:09 33.1 °F /  0.6 °C 23.3 °F /  -4.8 °C 30.32 in /  1026.6 hPa SW 2.4 mph /  3.9 km/h 5.0 mph /  8 km/h 67 % 0.00 in /  0 mm
05:15 33.1 °F /  0.6 °C 23.3 °F /  -4.8 °C 30.32 in /  1026.6 hPa WSW 4.6 mph /  7.4 km/h 9.2 mph /  14.8 km/h 67 % 0.00 in /  0 mm
05:20 33.2 °F /  0.7 °C 23.4 °F /  -4.8 °C 30.32 in /  1026.6 hPa WSW 4.0 mph /  6.4 km/h 10.0 mph /  16.1 km/h 67 % 0.00 in /  0 mm
05:25 33.3 °F /  0.7 °C 23.5 °F /  -4.7 °C 30.32 in /  1026.6 hPa SW 3.5 mph /  5.6 km/h 9.2 mph /  14.8 km/h 67 % 0.00 in /  0 mm
05:30 33.4 °F /  0.8 °C 23.6 °F /  -4.7 °C 30.33 in /  1027 hPa WSW 3.9 mph /  6.3 km/h 5.0 mph /  8 km/h 67 % 0.00 in /  0 mm
05:35 33.4 °F /  0.8 °C 24.0 °F /  -4.4 °C 30.33 in /  1027 hPa SW 4.5 mph /  7.2 km/h 6.9 mph /  11.1 km/h 68 % 0.00 in /  0 mm
05:40 33.4 °F /  0.8 °C 24.0 °F /  -4.4 °C 30.33 in /  1027 hPa SSW 4.0 mph /  6.4 km/h 6.0 mph /  9.7 km/h 68 % 0.00 in /  0 mm
05:45 33.5 °F /  0.8 °C 24.1 °F /  -4.4 °C 30.33 in /  1027 hPa SW 4.1 mph /  6.6 km/h 6.9 mph /  11.1 km/h 68 % 0.00 in /  0 mm
05:50 33.5 °F /  0.8 °C 24.1 °F /  -4.4 °C 30.33 in /  1027 hPa SW 3.9 mph /  6.3 km/h 9.2 mph /  14.8 km/h 68 % 0.00 in /  0 mm
05:55 33.6 °F /  0.9 °C 24.2 °F /  -4.3 °C 30.33 in /  1027 hPa SW 4.4 mph /  7.1 km/h 9.2 mph /  14.8 km/h 68 % 0.00 in /  0 mm
06:00 33.6 °F /  0.9 °C 24.2 °F /  -4.3 °C 30.33 in /  1027 hPa SW 7.3 mph /  11.7 km/h 9.2 mph /  14.8 km/h 68 % 0.00 in /  0 mm
06:05 33.6 °F /  0.9 °C 24.2 °F /  -4.3 °C 30.34 in /  1027.3 hPa SW 3.4 mph /  5.5 km/h 4.6 mph /  7.4 km/h 68 % 0.00 in /  0 mm
06:10 33.6 °F /  0.9 °C 24.2 °F /  -4.3 °C 30.34 in /  1027.3 hPa SSW 4.9 mph /  7.9 km/h 10.4 mph /  16.7 km/h 68 % 0.00 in /  0 mm
06:15 33.6 °F /  0.9 °C 24.2 °F /  -4.3 °C 30.34 in /  1027.3 hPa WSW 3.7 mph /  6 km/h 6.9 mph /  11.1 km/h 68 % 0.00 in /  0 mm
06:20 33.6 °F /  0.9 °C 24.2 °F /  -4.3 °C 30.34 in /  1027.3 hPa SW 5.8 mph /  9.3 km/h 11.5 mph /  18.5 km/h 68 % 0.00 in /  0 mm
06:25 33.6 °F /  0.9 °C 24.2 °F /  -4.3 °C 30.34 in /  1027.3 hPa SW 4.3 mph /  6.9 km/h 7.0 mph /  11.3 km/h 68 % 0.00 in /  0 mm
06:30 33.6 °F /  0.9 °C 24.2 °F /  -4.3 °C 30.34 in /  1027.3 hPa SW 5.6 mph /  9 km/h 11.5 mph /  18.5 km/h 68 % 0.00 in /  0 mm
06:35 33.6 °F /  0.9 °C 24.2 °F /  -4.3 °C 30.34 in /  1027.3 hPa SW 4.5 mph /  7.2 km/h 8.1 mph /  13 km/h 68 % 0.00 in /  0 mm
06:40 33.6 °F /  0.9 °C 24.5 °F /  -4.2 °C 30.34 in /  1027.3 hPa SSW 3.6 mph /  5.8 km/h 6.9 mph /  11.1 km/h 69 % 0.00 in /  0 mm
06:45 33.6 °F /  0.9 °C 24.5 °F /  -4.2 °C 30.34 in /  1027.3 hPa SSW 5.3 mph /  8.5 km/h 8.1 mph /  13 km/h 69 % 0.00 in /  0 mm
06:50 33.6 °F /  0.9 °C 24.5 °F /  -4.2 °C 30.34 in /  1027.3 hPa SW 5.3 mph /  8.5 km/h 6.9 mph /  11.1 km/h 69 % 0.00 in /  0 mm
06:55 33.6 °F /  0.9 °C 24.5 °F /  -4.2 °C 30.33 in /  1027 hPa SW 3.8 mph /  6.1 km/h 5.8 mph /  9.3 km/h 69 % 0.00 in /  0 mm
07:00 33.8 °F /  1 °C 24.7 °F /  -4.1 °C 30.34 in /  1027.3 hPa SW 2.8 mph /  4.5 km/h 5.8 mph /  9.3 km/h 69 % 0.00 in /  0 mm
07:05 33.9 °F /  1.1 °C 24.8 °F /  -4 °C 30.34 in /  1027.3 hPa SSW 4.0 mph /  6.4 km/h 6.9 mph /  11.1 km/h 69 % 0.00 in /  0 mm
07:10 34.2 °F /  1.2 °C 25.1 °F /  -3.8 °C 30.34 in /  1027.3 hPa SW 5.0 mph /  8 km/h 6.9 mph /  11.1 km/h 69 % 0.00 in /  0 mm
07:15 34.4 °F /  1.3 °C 24.9 °F /  -3.9 °C 30.34 in /  1027.3 hPa SSW 3.4 mph /  5.5 km/h 4.6 mph /  7.4 km/h 68 % 0.00 in /  0 mm
07:21 34.7 °F /  1.5 °C 25.2 °F /  -3.8 °C 30.34 in /  1027.3 hPa South 4.4 mph /  7.1 km/h 8.1 mph /  13 km/h 68 % 0.00 in /  0 mm
07:26 35.0 °F /  1.7 °C 25.1 °F /  -3.8 °C 30.35 in /  1027.7 hPa SW 5.2 mph /  8.4 km/h 8.1 mph /  13 km/h 67 % 0.00 in /  0 mm
07:31 35.3 °F /  1.8 °C 25.1 °F /  -3.8 °C 30.36 in /  1028 hPa WSW 5.3 mph /  8.5 km/h 6.9 mph /  11.1 km/h 66 % 0.00 in /  0 mm
07:36 35.6 °F /  2 °C 25.4 °F /  -3.7 °C 30.36 in /  1028 hPa SW 4.2 mph /  6.8 km/h 6.9 mph /  11.1 km/h 66 % 0.00 in /  0 mm
07:41 35.9 °F /  2.2 °C 25.6 °F /  -3.6 °C 30.36 in /  1028 hPa SSW 5.1 mph /  8.2 km/h 6.9 mph /  11.1 km/h 66 % 0.00 in /  0 mm
07:46 36.2 °F /  2.3 °C 25.9 °F /  -3.4 °C 30.37 in /  1028.3 hPa SW 4.7 mph /  7.6 km/h 8.1 mph /  13 km/h 66 % 0.00 in /  0 mm
07:51 36.5 °F /  2.5 °C 26.2 °F /  -3.2 °C 30.37 in /  1028.3 hPa SW 8.2 mph /  13.2 km/h 13.0 mph /  20.9 km/h 66 % 0.00 in /  0 mm
07:56 36.8 °F /  2.7 °C 26.5 °F /  -3.1 °C 30.37 in /  1028.3 hPa West 4.9 mph /  7.9 km/h 9.0 mph /  14.5 km/h 66 % 0.00 in /  0 mm
08:01 37.2 °F /  2.9 °C 26.9 °F /  -2.8 °C 30.37 in /  1028.3 hPa SSW 7.1 mph /  11.4 km/h 9.2 mph /  14.8 km/h 66 % 0.00 in /  0 mm
08:06 37.7 °F /  3.2 °C 27.0 °F /  -2.8 °C 30.37 in /  1028.3 hPa SW 3.6 mph /  5.8 km/h 10.0 mph /  16.1 km/h 65 % 0.00 in /  0 mm
08:11 38.2 °F /  3.4 °C 27.8 °F /  -2.3 °C 30.37 in /  1028.3 hPa SSW 5.9 mph /  9.5 km/h 10.0 mph /  16.1 km/h 66 % 0.00 in /  0 mm
08:16 38.7 °F /  3.7 °C 27.6 °F /  -2.4 °C 30.38 in /  1028.7 hPa WSW 3.8 mph /  6.1 km/h 8.1 mph /  13 km/h 64 % 0.00 in /  0 mm
08:21 39.2 °F /  4 °C 28.0 °F /  -2.2 °C 30.38 in /  1028.7 hPa SSW 7.5 mph /  12.1 km/h 11.5 mph /  18.5 km/h 64 % 0.00 in /  0 mm
08:26 39.6 °F /  4.2 °C 28.0 °F /  -2.2 °C 30.38 in /  1028.7 hPa SSW 6.8 mph /  10.9 km/h 10.4 mph /  16.7 km/h 63 % 0.00 in /  0 mm
08:31 39.9 °F /  4.4 °C 27.9 °F /  -2.3 °C 30.38 in /  1028.7 hPa WSW 6.4 mph /  10.3 km/h 9.2 mph /  14.8 km/h 62 % 0.00 in /  0 mm
08:36 40.2 °F /  4.6 °C 27.4 °F /  -2.6 °C 30.38 in /  1028.7 hPa West 7.6 mph /  12.2 km/h 13.8 mph /  22.2 km/h 60 % 0.00 in /  0 mm
08:41 40.6 °F /  4.8 °C 28.2 °F /  -2.1 °C 30.38 in /  1028.7 hPa SW 8.8 mph /  14.2 km/h 11.5 mph /  18.5 km/h 61 % 0.00 in /  0 mm
08:47 41.0 °F /  5 °C 28.2 °F /  -2.1 °C 30.38 in /  1028.7 hPa SW 6.4 mph /  10.3 km/h 10.4 mph /  16.7 km/h 60 % 0.00 in /  0 mm
08:52 41.5 °F /  5.3 °C 28.2 °F /  -2.1 °C 30.38 in /  1028.7 hPa WSW 6.5 mph /  10.5 km/h 11.5 mph /  18.5 km/h 59 % 0.00 in /  0 mm
08:57 42.0 °F /  5.6 °C 28.7 °F /  -1.8 °C 30.38 in /  1028.7 hPa WNW 4.4 mph /  7.1 km/h 6.9 mph /  11.1 km/h 59 % 0.00 in /  0 mm
09:02 42.4 °F /  5.8 °C 28.7 °F /  -1.8 °C 30.38 in /  1028.7 hPa SW 7.6 mph /  12.2 km/h 11.5 mph /  18.5 km/h 58 % 0.00 in /  0 mm
09:07 42.8 °F /  6 °C 28.2 °F /  -2.1 °C 30.38 in /  1028.7 hPa SW 6.1 mph /  9.8 km/h 13.8 mph /  22.2 km/h 56 % 0.00 in /  0 mm
09:12 43.2 °F /  6.2 °C 28.5 °F /  -1.9 °C 30.38 in /  1028.7 hPa SSW 7.1 mph /  11.4 km/h 12.0 mph /  19.3 km/h 56 % 0.00 in /  0 mm
09:17 43.6 °F /  6.4 °C 28.5 °F /  -1.9 °C 30.38 in /  1028.7 hPa SW 4.5 mph /  7.2 km/h 11.5 mph /  18.5 km/h 55 % 0.00 in /  0 mm
09:22 44.0 °F /  6.7 °C 28.9 °F /  -1.7 °C 30.38 in /  1028.7 hPa SW 2.5 mph /  4 km/h 9.2 mph /  14.8 km/h 55 % 0.00 in /  0 mm
09:27 44.5 °F /  6.9 °C 28.9 °F /  -1.7 °C 30.38 in /  1028.7 hPa WSW 6.4 mph /  10.3 km/h 11.0 mph /  17.7 km/h 54 % 0.00 in /  0 mm
09:32 44.9 °F /  7.2 °C 28.8 °F /  -1.8 °C 30.38 in /  1028.7 hPa SW 5.5 mph /  8.9 km/h 7.0 mph /  11.3 km/h 53 % 0.00 in /  0 mm
09:37 45.1 °F /  7.3 °C 29.0 °F /  -1.7 °C 30.38 in /  1028.7 hPa SW 3.7 mph /  6 km/h 6.9 mph /  11.1 km/h 53 % 0.00 in /  0 mm
09:42 45.5 °F /  7.5 °C 28.4 °F /  -2 °C 30.38 in /  1028.7 hPa SSW 6.7 mph /  10.8 km/h 10.4 mph /  16.7 km/h 51 % 0.00 in /  0 mm
09:47 45.8 °F /  7.7 °C 28.2 °F /  -2.1 °C 30.38 in /  1028.7 hPa SSW 4.9 mph /  7.9 km/h 8.1 mph /  13 km/h 50 % 0.00 in /  0 mm
09:52 46.1 °F /  7.8 °C 29.0 °F /  -1.7 °C 30.39 in /  1029 hPa SSW 5.4 mph /  8.7 km/h 11.5 mph /  18.5 km/h 51 % 0.00 in /  0 mm
09:57 46.4 °F /  8 °C 28.3 °F /  -2.1 °C 30.40 in /  1029.3 hPa South 6.7 mph /  10.8 km/h 11.5 mph /  18.5 km/h 49 % 0.00 in /  0 mm
10:02 46.7 °F /  8.2 °C 28.0 °F /  -2.2 °C 30.40 in /  1029.3 hPa South 7.2 mph /  11.6 km/h 11.0 mph /  17.7 km/h 48 % 0.00 in /  0 mm
10:07 46.9 °F /  8.3 °C 28.2 °F /  -2.1 °C 30.39 in /  1029 hPa SW 6.4 mph /  10.3 km/h 10.4 mph /  16.7 km/h 48 % 0.00 in /  0 mm
10:12 47.2 °F /  8.4 °C 28.0 °F /  -2.2 °C 30.39 in /  1029 hPa SSW 3.9 mph /  6.3 km/h 12.7 mph /  20.4 km/h 47 % 0.00 in /  0 mm
10:17 47.6 °F /  8.7 °C 28.9 °F /  -1.7 °C 30.39 in /  1029 hPa WSW 3.3 mph /  5.3 km/h 6.9 mph /  11.1 km/h 48 % 0.00 in /  0 mm
10:22 47.9 °F /  8.8 °C 27.6 °F /  -2.4 °C 30.40 in /  1029.3 hPa West 6.7 mph /  10.8 km/h 15.0 mph /  24.1 km/h 45 % 0.00 in /  0 mm
10:27 48.1 °F /  8.9 °C 27.7 °F /  -2.4 °C 30.39 in /  1029 hPa WSW 7.0 mph /  11.3 km/h 11.0 mph /  17.7 km/h 45 % 0.00 in /  0 mm
10:33 48.4 °F /  9.1 °C 27.5 °F /  -2.5 °C 30.39 in /  1029 hPa West 6.0 mph /  9.7 km/h 9.2 mph /  14.8 km/h 44 % 0.00 in /  0 mm
10:38 48.7 °F /  9.3 °C 28.3 °F /  -2.1 °C 30.39 in /  1029 hPa West 1.1 mph /  1.8 km/h 3.5 mph /  5.6 km/h 45 % 0.00 in /  0 mm
10:43 49.2 °F /  9.6 °C 28.7 °F /  -1.8 °C 30.39 in /  1029 hPa SW 4.5 mph /  7.2 km/h 8.1 mph /  13 km/h 45 % 0.00 in /  0 mm
10:48 49.9 °F /  9.9 °C 29.4 °F /  -1.4 °C 30.39 in /  1029 hPa WSW 2.5 mph /  4 km/h 9.2 mph /  14.8 km/h 45 % 0.00 in /  0 mm
10:49 50.0 °F /  10 °C 28.9 °F /  -1.7 °C 30.38 in /  1028.7 hPa West 6.5 mph /  10.5 km/h 11.0 mph /  17.7 km/h 44 % 0.00 in /  0 mm
10:54 50.5 °F /  10.3 °C 28.2 °F /  -2.1 °C 30.39 in /  1029 hPa West 7.8 mph /  12.6 km/h 10.0 mph /  16.1 km/h 42 % 0.00 in /  0 mm
10:59 50.9 °F /  10.5 °C 28.6 °F /  -1.9 °C 30.38 in /  1028.7 hPa WSW 3.0 mph /  4.8 km/h 6.9 mph /  11.1 km/h 42 % 0.00 in /  0 mm
11:04 51.1 °F /  10.6 °C 28.2 °F /  -2.1 °C 30.38 in /  1028.7 hPa SW 7.1 mph /  11.4 km/h 11.5 mph /  18.5 km/h 41 % 0.00 in /  0 mm
11:09 51.2 °F /  10.7 °C 28.9 °F /  -1.7 °C 30.39 in /  1029 hPa SW 7.9 mph /  12.7 km/h 13.0 mph /  20.9 km/h 42 % 0.00 in /  0 mm
11:14 51.2 °F /  10.7 °C 28.9 °F /  -1.7 °C 30.38 in /  1028.7 hPa SSW 5.3 mph /  8.5 km/h 11.5 mph /  18.5 km/h 42 % 0.00 in /  0 mm
11:19 51.3 °F /  10.7 °C 29.0 °F /  -1.7 °C 30.38 in /  1028.7 hPa SSW 5.6 mph /  9 km/h 10.4 mph /  16.7 km/h 42 % 0.00 in /  0 mm
11:24 51.5 °F /  10.8 °C 28.6 °F /  -1.9 °C 30.39 in /  1029 hPa SSW 3.8 mph /  6.1 km/h 8.1 mph /  13 km/h 41 % 0.00 in /  0 mm
11:29 51.8 °F /  11 °C 29.4 °F /  -1.4 °C 30.39 in /  1029 hPa SW 4.5 mph /  7.2 km/h 9.0 mph /  14.5 km/h 42 % 0.00 in /  0 mm
11:34 52.1 °F /  11.2 °C 30.3 °F /  -0.9 °C 30.38 in /  1028.7 hPa SW 5.1 mph /  8.2 km/h 6.9 mph /  11.1 km/h 43 % 0.00 in /  0 mm
11:39 52.5 °F /  11.4 °C 28.8 °F /  -1.8 °C 30.38 in /  1028.7 hPa SSW 8.3 mph /  13.4 km/h 12.7 mph /  20.4 km/h 40 % 0.00 in /  0 mm
11:44 52.7 °F /  11.5 °C 29.0 °F /  -1.7 °C 30.38 in /  1028.7 hPa SSW 5.8 mph /  9.3 km/h 7.0 mph /  11.3 km/h 40 % 0.00 in /  0 mm
11:49 52.8 °F /  11.6 °C 29.7 °F /  -1.3 °C 30.38 in /  1028.7 hPa SSW 2.8 mph /  4.5 km/h 9.0 mph /  14.5 km/h 41 % 0.00 in /  0 mm
11:54 52.7 °F /  11.5 °C 29.0 °F /  -1.7 °C 30.38 in /  1028.7 hPa SSW 7.9 mph /  12.7 km/h 12.7 mph /  20.4 km/h 40 % 0.00 in /  0 mm
11:58 52.6 °F /  11.4 °C 28.9 °F /  -1.7 °C 30.38 in /  1028.7 hPa WSW 3.3 mph /  5.3 km/h 6.9 mph /  11.1 km/h 40 % 0.00 in /  0 mm
12:03 52.6 °F /  11.4 °C 28.9 °F /  -1.7 °C 30.38 in /  1028.7 hPa South 8.3 mph /  13.4 km/h 11.5 mph /  18.5 km/h 40 % 0.00 in /  0 mm
12:08 52.5 °F /  11.4 °C 28.2 °F /  -2.1 °C 30.37 in /  1028.3 hPa SW 8.4 mph /  13.5 km/h 12.0 mph /  19.3 km/h 39 % 0.00 in /  0 mm
12:13 52.6 °F /  11.4 °C 28.3 °F /  -2.1 °C 30.37 in /  1028.3 hPa WSW 5.1 mph /  8.2 km/h 10.4 mph /  16.7 km/h 39 % 0.00 in /  0 mm
12:18 53.0 °F /  11.7 °C 28.0 °F /  -2.2 °C 30.37 in /  1028.3 hPa SW 7.4 mph /  11.9 km/h 13.8 mph /  22.2 km/h 38 % 0.00 in /  0 mm
12:23 53.1 °F /  11.7 °C 27.5 °F /  -2.5 °C 30.36 in /  1028 hPa NW 7.3 mph /  11.7 km/h 12.7 mph /  20.4 km/h 37 % 0.00 in /  0 mm
12:28 53.2 °F /  11.8 °C 28.2 °F /  -2.1 °C 30.36 in /  1028 hPa WSW 7.8 mph /  12.6 km/h 12.7 mph /  20.4 km/h 38 % 0.00 in /  0 mm
12:33 53.5 °F /  11.9 °C 29.1 °F /  -1.6 °C 30.36 in /  1028 hPa WSW 2.9 mph /  4.7 km/h 10.0 mph /  16.1 km/h 39 % 0.00 in /  0 mm
12:38 53.5 °F /  11.9 °C 29.1 °F /  -1.6 °C 30.35 in /  1027.7 hPa SW 3.0 mph /  4.8 km/h 12.0 mph /  19.3 km/h 39 % 0.00 in /  0 mm
12:43 53.7 °F /  12.1 °C 28.7 °F /  -1.8 °C 30.35 in /  1027.7 hPa SSW 6.0 mph /  9.7 km/h 10.0 mph /  16.1 km/h 38 % 0.00 in /  0 mm
12:48 53.8 °F /  12.1 °C 28.8 °F /  -1.8 °C 30.35 in /  1027.7 hPa SW 7.0 mph /  11.3 km/h 10.0 mph /  16.1 km/h 38 % 0.00 in /  0 mm
12:53 53.8 °F /  12.1 °C 28.8 °F /  -1.8 °C 30.35 in /  1027.7 hPa WSW 8.1 mph /  13 km/h 11.5 mph /  18.5 km/h 38 % 0.00 in /  0 mm
12:58 53.9 °F /  12.2 °C 29.5 °F /  -1.4 °C 30.35 in /  1027.7 hPa SSW 6.2 mph /  10 km/h 7.0 mph /  11.3 km/h 39 % 0.00 in /  0 mm
13:03 54.2 °F /  12.3 °C 29.1 °F /  -1.6 °C 30.35 in /  1027.7 hPa SSW 2.5 mph /  4 km/h 6.9 mph /  11.1 km/h 38 % 0.00 in /  0 mm
13:08 54.5 °F /  12.5 °C 29.4 °F /  -1.4 °C 30.34 in /  1027.3 hPa SW 3.4 mph /  5.5 km/h 8.1 mph /  13 km/h 38 % 0.00 in /  0 mm
13:13 54.6 °F /  12.6 °C 29.5 °F /  -1.4 °C 30.34 in /  1027.3 hPa SW 5.0 mph /  8 km/h 12.7 mph /  20.4 km/h 38 % 0.00 in /  0 mm
13:18 54.7 °F /  12.6 °C 28.9 °F /  -1.7 °C 30.34 in /  1027.3 hPa SW 5.5 mph /  8.9 km/h 12.7 mph /  20.4 km/h 37 % 0.00 in /  0 mm
13:23 54.4 °F /  12.4 °C 28.0 °F /  -2.2 °C 30.34 in /  1027.3 hPa NW 4.7 mph /  7.6 km/h 6.9 mph /  11.1 km/h 36 % 0.00 in /  0 mm
13:28 54.6 °F /  12.6 °C 29.5 °F /  -1.4 °C 30.35 in /  1027.7 hPa South 3.5 mph /  5.6 km/h 7.0 mph /  11.3 km/h 38 % 0.00 in /  0 mm
13:33 54.9 °F /  12.7 °C 27.7 °F /  -2.4 °C 30.34 in /  1027.3 hPa West 5.0 mph /  8 km/h 8.1 mph /  13 km/h 35 % 0.00 in /  0 mm
13:38 54.9 °F /  12.7 °C 27.0 °F /  -2.8 °C 30.34 in /  1027.3 hPa South 7.2 mph /  11.6 km/h 12.7 mph /  20.4 km/h 34 % 0.00 in /  0 mm
13:43 54.8 °F /  12.7 °C 27.6 °F /  -2.4 °C 30.34 in /  1027.3 hPa SW 6.4 mph /  10.3 km/h 12.7 mph /  20.4 km/h 35 % 0.00 in /  0 mm
13:49 54.7 °F /  12.6 °C 27.6 °F /  -2.4 °C 30.34 in /  1027.3 hPa SW 4.4 mph /  7.1 km/h 11.0 mph /  17.7 km/h 35 % 0.00 in /  0 mm
13:54 54.6 °F /  12.6 °C 27.5 °F /  -2.5 °C 30.34 in /  1027.3 hPa SSW 5.7 mph /  9.2 km/h 12.7 mph /  20.4 km/h 35 % 0.00 in /  0 mm
13:59 54.4 °F /  12.4 °C 28.6 °F /  -1.9 °C 30.33 in /  1027 hPa South 4.0 mph /  6.4 km/h 6.9 mph /  11.1 km/h 37 % 0.00 in /  0 mm
14:04 54.2 °F /  12.3 °C 27.8 °F /  -2.3 °C 30.33 in /  1027 hPa WSW 6.1 mph /  9.8 km/h 9.2 mph /  14.8 km/h 36 % 0.00 in /  0 mm
14:09 54.1 °F /  12.3 °C 27.7 °F /  -2.4 °C 30.33 in /  1027 hPa WSW 2.9 mph /  4.7 km/h 7.0 mph /  11.3 km/h 36 % 0.00 in /  0 mm
14:14 53.9 °F /  12.2 °C 28.2 °F /  -2.1 °C 30.33 in /  1027 hPa South 4.4 mph /  7.1 km/h 6.9 mph /  11.1 km/h 37 % 0.00 in /  0 mm
14:19 53.8 °F /  12.1 °C 28.1 °F /  -2.2 °C 30.33 in /  1027 hPa SW 7.2 mph /  11.6 km/h 11.5 mph /  18.5 km/h 37 % 0.00 in /  0 mm
14:24 53.3 °F /  11.8 °C 29.6 °F /  -1.3 °C 30.33 in /  1027 hPa SSW 6.9 mph /  11.1 km/h 10.4 mph /  16.7 km/h 40 % 0.00 in /  0 mm
14:29 53.0 °F /  11.7 °C 29.3 °F /  -1.5 °C 30.33 in /  1027 hPa SSW 8.2 mph /  13.2 km/h 10.4 mph /  16.7 km/h 40 % 0.00 in /  0 mm
14:34 52.8 °F /  11.6 °C 32.0 °F /  0 °C 30.33 in /  1027 hPa SE 4.9 mph /  7.9 km/h 6.9 mph /  11.1 km/h 45 % 0.00 in /  0 mm
14:39 52.4 °F /  11.3 °C 32.2 °F /  0.1 °C 30.33 in /  1027 hPa SSW 4.2 mph /  6.8 km/h 9.2 mph /  14.8 km/h 46 % 0.00 in /  0 mm
14:44 52.1 °F /  11.2 °C 33.0 °F /  0.6 °C 30.33 in /  1027 hPa SSE 6.9 mph /  11.1 km/h 8.1 mph /  13 km/h 48 % 0.00 in /  0 mm
14:49 51.9 °F /  11.1 °C 31.7 °F /  -0.2 °C 30.33 in /  1027 hPa South 9.6 mph /  15.4 km/h 16.1 mph /  25.9 km/h 46 % 0.00 in /  0 mm
14:54 51.5 °F /  10.8 °C 31.9 °F /  -0.1 °C 30.33 in /  1027 hPa SW 5.9 mph /  9.5 km/h 11.5 mph /  18.5 km/h 47 % 0.00 in /  0 mm
14:59 51.3 °F /  10.7 °C 31.2 °F /  -0.4 °C 30.34 in /  1027.3 hPa South 7.6 mph /  12.2 km/h 11.5 mph /  18.5 km/h 46 % 0.00 in /  0 mm
15:04 51.1 °F /  10.6 °C 31.6 °F /  -0.2 °C 30.33 in /  1027 hPa SSW 7.5 mph /  12.1 km/h 11.5 mph /  18.5 km/h 47 % 0.00 in /  0 mm
15:09 51.0 °F /  10.6 °C 30.9 °F /  -0.6 °C 30.34 in /  1027.3 hPa SSW 3.7 mph /  6 km/h 8.1 mph /  13 km/h 46 % 0.00 in /  0 mm
15:14 50.8 °F /  10.4 °C 31.3 °F /  -0.4 °C 30.34 in /  1027.3 hPa SSW 6.1 mph /  9.8 km/h 13.0 mph /  20.9 km/h 47 % 0.00 in /  0 mm
15:15 50.8 °F /  10.4 °C 31.3 °F /  -0.4 °C 30.34 in /  1027.3 hPa South 7.9 mph /  12.7 km/h 12.0 mph /  19.3 km/h 47 % 0.00 in /  0 mm
15:20 50.8 °F /  10.4 °C 31.8 °F /  -0.1 °C 30.34 in /  1027.3 hPa SSW 5.0 mph /  8 km/h 8.1 mph /  13 km/h 48 % 0.00 in /  0 mm
15:25 50.6 °F /  10.3 °C 31.6 °F /  -0.2 °C 30.33 in /  1027 hPa SW 10.1 mph /  16.3 km/h 16.1 mph /  25.9 km/h 48 % 0.00 in /  0 mm
15:30 50.5 °F /  10.3 °C 32.0 °F /  0 °C 30.33 in /  1027 hPa SSW 4.2 mph /  6.8 km/h 10.4 mph /  16.7 km/h 49 % 0.00 in /  0 mm
15:35 50.5 °F /  10.3 °C 32.5 °F /  0.3 °C 30.33 in /  1027 hPa SSE 4.6 mph /  7.4 km/h 8.1 mph /  13 km/h 50 % 0.00 in /  0 mm
15:40 50.4 °F /  10.2 °C 32.9 °F /  0.5 °C 30.33 in /  1027 hPa SW 5.5 mph /  8.9 km/h 9.2 mph /  14.8 km/h 51 % 0.00 in /  0 mm
15:45 50.3 °F /  10.2 °C 33.3 °F /  0.7 °C 30.33 in /  1027 hPa SW 6.0 mph /  9.7 km/h 10.0 mph /  16.1 km/h 52 % 0.00 in /  0 mm
15:51 50.3 °F /  10.2 °C 33.8 °F /  1 °C 30.33 in /  1027 hPa SSE 4.0 mph /  6.4 km/h 6.0 mph /  9.7 km/h 53 % 0.00 in /  0 mm
15:56 50.2 °F /  10.1 °C 33.7 °F /  0.9 °C 30.33 in /  1027 hPa SSW 7.0 mph /  11.3 km/h 11.5 mph /  18.5 km/h 53 % 0.00 in /  0 mm
16:01 50.1 °F /  10.1 °C 34.1 °F /  1.2 °C 30.33 in /  1027 hPa South 8.5 mph /  13.7 km/h 12.7 mph /  20.4 km/h 54 % 0.00 in /  0 mm
16:06 49.9 °F /  9.9 °C 34.8 °F /  1.6 °C 30.33 in /  1027 hPa South 6.4 mph /  10.3 km/h 11.5 mph /  18.5 km/h 56 % 0.00 in /  0 mm
16:11 49.5 °F /  9.7 °C 34.9 °F /  1.6 °C 30.33 in /  1027 hPa SSW 5.1 mph /  8.2 km/h 10.4 mph /  16.7 km/h 57 % 0.00 in /  0 mm
16:16 49.3 °F /  9.6 °C 35.1 °F /  1.7 °C 30.33 in /  1027 hPa South 4.9 mph /  7.9 km/h 12.0 mph /  19.3 km/h 58 % 0.00 in /  0 mm
16:21 49.1 °F /  9.5 °C 35.4 °F /  1.9 °C 30.33 in /  1027 hPa South 7.0 mph /  11.3 km/h 9.2 mph /  14.8 km/h 59 % 0.00 in /  0 mm
16:26 49.0 °F /  9.4 °C 35.7 °F /  2.1 °C 30.33 in /  1027 hPa SSW 6.0 mph /  9.7 km/h 12.7 mph /  20.4 km/h 60 % 0.00 in /  0 mm
16:31 48.8 °F /  9.3 °C 35.9 °F /  2.2 °C 30.33 in /  1027 hPa South 6.7 mph /  10.8 km/h 10.4 mph /  16.7 km/h 61 % 0.00 in /  0 mm
16:36 48.7 °F /  9.3 °C 36.3 °F /  2.4 °C 30.33 in /  1027 hPa South 5.4 mph /  8.7 km/h 10.4 mph /  16.7 km/h 62 % 0.00 in /  0 mm
16:41 48.6 °F /  9.2 °C 36.2 °F /  2.3 °C 30.33 in /  1027 hPa South 4.3 mph /  6.9 km/h 9.2 mph /  14.8 km/h 62 % 0.00 in /  0 mm
16:46 48.5 °F /  9.2 °C 36.5 °F /  2.5 °C 30.33 in /  1027 hPa SW 7.0 mph /  11.3 km/h 11.5 mph /  18.5 km/h 63 % 0.00 in /  0 mm
16:51 48.4 °F /  9.1 °C 36.8 °F /  2.7 °C 30.33 in /  1027 hPa South 6.8 mph /  10.9 km/h 10.4 mph /  16.7 km/h 64 % 0.00 in /  0 mm
16:56 48.3 °F /  9.1 °C 37.1 °F /  2.8 °C 30.34 in /  1027.3 hPa SSW 5.7 mph /  9.2 km/h 11.5 mph /  18.5 km/h 65 % 0.00 in /  0 mm
17:01 48.2 °F /  9 °C 37.0 °F /  2.8 °C 30.34 in /  1027.3 hPa SSW 3.2 mph /  5.1 km/h 8.1 mph /  13 km/h 65 % 0.00 in /  0 mm
17:06 48.0 °F /  8.9 °C 37.2 °F /  2.9 °C 30.34 in /  1027.3 hPa SW 5.5 mph /  8.9 km/h 8.1 mph /  13 km/h 66 % 0.00 in /  0 mm
17:11 47.8 °F /  8.8 °C 37.0 °F /  2.8 °C 30.34 in /  1027.3 hPa South 3.7 mph /  6 km/h 7.0 mph /  11.3 km/h 66 % 0.00 in /  0 mm
17:16 47.6 °F /  8.7 °C 36.8 °F /  2.7 °C 30.34 in /  1027.3 hPa South 5.6 mph /  9 km/h 9.2 mph /  14.8 km/h 66 % 0.00 in /  0 mm
17:21 47.4 °F /  8.6 °C 37.0 °F /  2.8 °C 30.35 in /  1027.7 hPa SSW 4.4 mph /  7.1 km/h 7.0 mph /  11.3 km/h 67 % 0.00 in /  0 mm
17:26 47.3 °F /  8.5 °C 36.9 °F /  2.7 °C 30.34 in /  1027.3 hPa South 4.9 mph /  7.9 km/h 9.2 mph /  14.8 km/h 67 % 0.00 in /  0 mm
17:31 47.1 °F /  8.4 °C 36.7 °F /  2.6 °C 30.35 in /  1027.7 hPa SSW 4.0 mph /  6.4 km/h 9.2 mph /  14.8 km/h 67 % 0.00 in /  0 mm
17:37 47.0 °F /  8.3 °C 37.0 °F /  2.8 °C 30.34 in /  1027.3 hPa SSW 3.6 mph /  5.8 km/h 8.1 mph /  13 km/h 68 % 0.00 in /  0 mm
17:42 46.8 °F /  8.2 °C 36.8 °F /  2.7 °C 30.34 in /  1027.3 hPa SSW 5.3 mph /  8.5 km/h 10.4 mph /  16.7 km/h 68 % 0.00 in /  0 mm
17:47 46.7 °F /  8.2 °C 37.1 °F /  2.8 °C 30.34 in /  1027.3 hPa South 3.9 mph /  6.3 km/h 6.9 mph /  11.1 km/h 69 % 0.00 in /  0 mm
17:52 46.6 °F /  8.1 °C 37.0 °F /  2.8 °C 30.34 in /  1027.3 hPa SSW 4.6 mph /  7.4 km/h 6.9 mph /  11.1 km/h 69 % 0.00 in /  0 mm
17:57 46.5 °F /  8.1 °C 36.9 °F /  2.7 °C 30.35 in /  1027.7 hPa South 3.5 mph /  5.6 km/h 4.6 mph /  7.4 km/h 69 % 0.00 in /  0 mm
18:02 46.3 °F /  7.9 °C 37.0 °F /  2.8 °C 30.35 in /  1027.7 hPa SSW 5.0 mph /  8 km/h 7.0 mph /  11.3 km/h 70 % 0.00 in /  0 mm
18:07 46.2 °F /  7.9 °C 37.3 °F /  2.9 °C 30.35 in /  1027.7 hPa SSW 3.5 mph /  5.6 km/h 10.4 mph /  16.7 km/h 71 % 0.00 in /  0 mm
18:12 46.1 °F /  7.8 °C 37.2 °F /  2.9 °C 30.35 in /  1027.7 hPa South 5.4 mph /  8.7 km/h 8.0 mph /  12.9 km/h 71 % 0.00 in /  0 mm
18:17 46.0 °F /  7.8 °C 37.5 °F /  3.1 °C 30.35 in /  1027.7 hPa SSW 3.0 mph /  4.8 km/h 6.9 mph /  11.1 km/h 72 % 0.00 in /  0 mm
18:22 45.9 °F /  7.7 °C 37.4 °F /  3 °C 30.36 in /  1028 hPa South 4.0 mph /  6.4 km/h 6.0 mph /  9.7 km/h 72 % 0.00 in /  0 mm
18:27 45.8 °F /  7.7 °C 37.6 °F /  3.1 °C 30.36 in /  1028 hPa WSW 2.6 mph /  4.2 km/h 6.9 mph /  11.1 km/h 73 % 0.00 in /  0 mm
18:32 45.7 °F /  7.6 °C 37.5 °F /  3.1 °C 30.36 in /  1028 hPa SSW 3.5 mph /  5.6 km/h 5.8 mph /  9.3 km/h 73 % 0.00 in /  0 mm
18:37 45.7 °F /  7.6 °C 37.5 °F /  3.1 °C 30.35 in /  1027.7 hPa SW 2.9 mph /  4.7 km/h 4.6 mph /  7.4 km/h 73 % 0.00 in /  0 mm
18:42 45.5 °F /  7.5 °C 37.7 °F /  3.2 °C 30.36 in /  1028 hPa SSW 3.2 mph /  5.1 km/h 4.6 mph /  7.4 km/h 74 % 0.00 in /  0 mm
18:47 45.5 °F /  7.5 °C 37.7 °F /  3.2 °C 30.36 in /  1028 hPa South 2.5 mph /  4 km/h 4.6 mph /  7.4 km/h 74 % 0.00 in /  0 mm
18:52 45.4 °F /  7.4 °C 37.6 °F /  3.1 °C 30.36 in /  1028 hPa SW 2.9 mph /  4.7 km/h 6.9 mph /  11.1 km/h 74 % 0.00 in /  0 mm
18:57 45.3 °F /  7.4 °C 37.5 °F /  3.1 °C 30.36 in /  1028 hPa SW 4.0 mph /  6.4 km/h 5.8 mph /  9.3 km/h 74 % 0.00 in /  0 mm
19:02 45.2 °F /  7.3 °C 37.7 °F /  3.2 °C 30.36 in /  1028 hPa South 3.6 mph /  5.8 km/h 5.8 mph /  9.3 km/h 75 % 0.00 in /  0 mm
19:07 45.2 °F /  7.3 °C 37.7 °F /  3.2 °C 30.36 in /  1028 hPa SW 2.9 mph /  4.7 km/h 6.0 mph /  9.7 km/h 75 % 0.00 in /  0 mm
19:12 45.2 °F /  7.3 °C 37.7 °F /  3.2 °C 30.36 in /  1028 hPa SW 4.0 mph /  6.4 km/h 7.0 mph /  11.3 km/h 75 % 0.00 in /  0 mm
19:17 45.2 °F /  7.3 °C 37.7 °F /  3.2 °C 30.36 in /  1028 hPa SSW 3.1 mph /  5 km/h 8.1 mph /  13 km/h 75 % 0.00 in /  0 mm
19:22 45.3 °F /  7.4 °C 37.5 °F /  3.1 °C 30.37 in /  1028.3 hPa WSW 2.3 mph /  3.7 km/h 5.8 mph /  9.3 km/h 74 % 0.00 in /  0 mm
19:27 45.4 °F /  7.4 °C 37.6 °F /  3.1 °C 30.37 in /  1028.3 hPa SSW 2.8 mph /  4.5 km/h 5.0 mph /  8 km/h 74 % 0.00 in /  0 mm
19:33 45.4 °F /  7.4 °C 37.6 °F /  3.1 °C 30.37 in /  1028.3 hPa SW 4.4 mph /  7.1 km/h 6.9 mph /  11.1 km/h 74 % 0.00 in /  0 mm
19:38 45.4 °F /  7.4 °C 37.6 °F /  3.1 °C 30.37 in /  1028.3 hPa SW 4.0 mph /  6.4 km/h 5.8 mph /  9.3 km/h 74 % 0.00 in /  0 mm
19:43 45.4 °F /  7.4 °C 37.6 °F /  3.1 °C 30.36 in /  1028 hPa SSW 4.3 mph /  6.9 km/h 6.9 mph /  11.1 km/h 74 % 0.00 in /  0 mm
19:48 45.4 °F /  7.4 °C 37.6 °F /  3.1 °C 30.36 in /  1028 hPa SW 3.4 mph /  5.5 km/h 4.6 mph /  7.4 km/h 74 % 0.00 in /  0 mm
19:53 45.5 °F /  7.5 °C 37.7 °F /  3.2 °C 30.36 in /  1028 hPa WSW 2.3 mph /  3.7 km/h 4.0 mph /  6.4 km/h 74 % 0.00 in /  0 mm
19:58 45.5 °F /  7.5 °C 37.3 °F /  2.9 °C 30.37 in /  1028.3 hPa SSW 4.5 mph /  7.2 km/h 6.9 mph /  11.1 km/h 73 % 0.00 in /  0 mm
20:03 45.6 °F /  7.6 °C 37.1 °F /  2.8 °C 30.37 in /  1028.3 hPa SSW 4.3 mph /  6.9 km/h 8.1 mph /  13 km/h 72 % 0.00 in /  0 mm
20:08 45.8 °F /  7.7 °C 37.3 °F /  2.9 °C 30.36 in /  1028 hPa SSW 4.3 mph /  6.9 km/h 8.1 mph /  13 km/h 72 % 0.00 in /  0 mm
20:13 45.9 °F /  7.7 °C 37.0 °F /  2.8 °C 30.36 in /  1028 hPa SSW 1.2 mph /  1.9 km/h 3.5 mph /  5.6 km/h 71 % 0.00 in /  0 mm
20:18 46.0 °F /  7.8 °C 36.8 °F /  2.7 °C 30.36 in /  1028 hPa SSW 4.1 mph /  6.6 km/h 6.9 mph /  11.1 km/h 70 % 0.00 in /  0 mm
20:23 46.1 °F /  7.8 °C 36.8 °F /  2.7 °C 30.36 in /  1028 hPa SW 3.0 mph /  4.8 km/h 8.0 mph /  12.9 km/h 70 % 0.00 in /  0 mm
20:28 46.1 °F /  7.8 °C 36.9 °F /  2.7 °C 30.36 in /  1028 hPa SW 3.0 mph /  4.8 km/h 6.0 mph /  9.7 km/h 70 % 0.00 in /  0 mm
20:33 46.2 °F /  7.9 °C 36.6 °F /  2.6 °C 30.36 in /  1028 hPa SW 2.4 mph /  3.9 km/h 5.8 mph /  9.3 km/h 69 % 0.00 in /  0 mm
20:38 46.2 °F /  7.9 °C 36.6 °F /  2.6 °C 30.36 in /  1028 hPa SW 2.0 mph /  3.2 km/h 7.0 mph /  11.3 km/h 69 % 0.00 in /  0 mm
20:43 46.1 °F /  7.8 °C 36.5 °F /  2.5 °C 30.36 in /  1028 hPa SW 2.0 mph /  3.2 km/h 6.0 mph /  9.7 km/h 69 % 0.00 in /  0 mm
20:48 46.1 °F /  7.8 °C 36.5 °F /  2.5 °C 30.36 in /  1028 hPa SW 3.0 mph /  4.8 km/h 6.0 mph /  9.7 km/h 69 % 0.00 in /  0 mm
20:53 46.1 °F /  7.8 °C 36.5 °F /  2.5 °C 30.35 in /  1027.7 hPa SW 2.0 mph /  3.2 km/h 7.0 mph /  11.3 km/h 69 % 0.00 in /  0 mm
20:58 46.1 °F /  7.8 °C 36.5 °F /  2.5 °C 30.35 in /  1027.7 hPa SW 3.1 mph /  5 km/h 5.8 mph /  9.3 km/h 69 % 0.00 in /  0 mm
21:03 46.0 °F /  7.8 °C 36.4 °F /  2.4 °C 30.35 in /  1027.7 hPa SSW 3.0 mph /  4.8 km/h 8.0 mph /  12.9 km/h 69 % 0.00 in /  0 mm
21:08 46.0 °F /  7.8 °C 36.4 °F /  2.4 °C 30.36 in /  1028 hPa SSW 5.0 mph /  8 km/h 7.0 mph /  11.3 km/h 69 % 0.00 in /  0 mm
21:13 46.0 °F /  7.8 °C 36.4 °F /  2.4 °C 30.35 in /  1027.7 hPa SSW 4.5 mph /  7.2 km/h 6.9 mph /  11.1 km/h 69 % 0.00 in /  0 mm
21:18 46.0 °F /  7.8 °C 36.4 °F /  2.4 °C 30.36 in /  1028 hPa SW 3.0 mph /  4.8 km/h 6.0 mph /  9.7 km/h 69 % 0.00 in /  0 mm
21:23 46.0 °F /  7.8 °C 36.8 °F /  2.7 °C 30.36 in /  1028 hPa SW 2.0 mph /  3.2 km/h 7.0 mph /  11.3 km/h 70 % 0.00 in /  0 mm
21:28 45.9 °F /  7.7 °C 36.7 °F /  2.6 °C 30.36 in /  1028 hPa SSW 2.0 mph /  3.2 km/h 7.0 mph /  11.3 km/h 70 % 0.00 in /  0 mm
21:33 45.8 °F /  7.7 °C 36.6 °F /  2.6 °C 30.36 in /  1028 hPa SW 3.1 mph /  5 km/h 5.8 mph /  9.3 km/h 70 % 0.00 in /  0 mm
21:38 45.7 °F /  7.6 °C 36.8 °F /  2.7 °C 30.36 in /  1028 hPa SW 2.0 mph /  3.2 km/h 4.0 mph /  6.4 km/h 71 % 0.00 in /  0 mm
21:43 45.6 °F /  7.6 °C 36.7 °F /  2.6 °C 30.36 in /  1028 hPa SW 3.0 mph /  4.8 km/h 6.0 mph /  9.7 km/h 71 % 0.00 in /  0 mm
21:48 45.5 °F /  7.5 °C 36.6 °F /  2.6 °C 30.37 in /  1028.3 hPa SW 2.0 mph /  3.2 km/h 6.0 mph /  9.7 km/h 71 % 0.00 in /  0 mm
21:53 45.3 °F /  7.4 °C 36.8 °F /  2.7 °C 30.37 in /  1028.3 hPa SSW 3.0 mph /  4.8 km/h 8.0 mph /  12.9 km/h 72 % 0.00 in /  0 mm
21:58 45.2 °F /  7.3 °C 36.7 °F /  2.6 °C 30.36 in /  1028 hPa South 3.1 mph /  5 km/h 4.6 mph /  7.4 km/h 72 % 0.00 in /  0 mm
22:03 45.1 °F /  7.3 °C 37.0 °F /  2.8 °C 30.36 in /  1028 hPa SW 1.8 mph /  2.9 km/h 5.8 mph /  9.3 km/h 73 % 0.00 in /  0 mm
22:08 45.1 °F /  7.3 °C 37.0 °F /  2.8 °C 30.37 in /  1028.3 hPa SSW 2.0 mph /  3.2 km/h 3.5 mph /  5.6 km/h 73 % 0.00 in /  0 mm
22:13 45.0 °F /  7.2 °C 36.9 °F /  2.7 °C 30.36 in /  1028 hPa SW 1.4 mph /  2.3 km/h 5.8 mph /  9.3 km/h 73 % 0.00 in /  0 mm
22:18 44.9 °F /  7.2 °C 37.1 °F /  2.8 °C 30.37 in /  1028.3 hPa SSW 2.1 mph /  3.4 km/h 4.6 mph /  7.4 km/h 74 % 0.00 in /  0 mm
22:23 44.8 °F /  7.1 °C 37.0 °F /  2.8 °C 30.37 in /  1028.3 hPa SW 1.9 mph /  3.1 km/h 3.5 mph /  5.6 km/h 74 % 0.00 in /  0 mm
22:28 44.7 °F /  7.1 °C 37.3 °F /  2.9 °C 30.37 in /  1028.3 hPa SW 1.1 mph /  1.8 km/h 2.3 mph /  3.7 km/h 75 % 0.00 in /  0 mm
22:33 44.5 °F /  6.9 °C 37.1 °F /  2.8 °C 30.37 in /  1028.3 hPa SSW 1.9 mph /  3.1 km/h 4.0 mph /  6.4 km/h 75 % 0.00 in /  0 mm
22:38 44.4 °F /  6.9 °C 37.3 °F /  2.9 °C 30.37 in /  1028.3 hPa SW 3.3 mph /  5.3 km/h 5.8 mph /  9.3 km/h 76 % 0.00 in /  0 mm
22:43 44.3 °F /  6.8 °C 37.2 °F /  2.9 °C 30.37 in /  1028.3 hPa SSW 2.6 mph /  4.2 km/h 3.5 mph /  5.6 km/h 76 % 0.00 in /  0 mm
22:48 44.2 °F /  6.8 °C 37.4 °F /  3 °C 30.36 in /  1028 hPa SW 2.3 mph /  3.7 km/h 3.5 mph /  5.6 km/h 77 % 0.00 in /  0 mm
22:53 44.2 °F /  6.8 °C 37.4 °F /  3 °C 30.36 in /  1028 hPa SSW 1.5 mph /  2.4 km/h 3.5 mph /  5.6 km/h 77 % 0.00 in /  0 mm
22:58 44.2 °F /  6.8 °C 37.4 °F /  3 °C 30.36 in /  1028 hPa Calm   3.5 mph /  5.6 km/h 77 % 0.00 in /  0 mm
23:03 44.2 °F /  6.8 °C 37.4 °F /  3 °C 30.36 in /  1028 hPa WSW 1.1 mph /  1.8 km/h 3.5 mph /  5.6 km/h 77 % 0.00 in /  0 mm
23:09 44.1 °F /  6.7 °C 37.3 °F /  2.9 °C 30.36 in /  1028 hPa SW 2.3 mph /  3.7 km/h 4.6 mph /  7.4 km/h 77 % 0.00 in /  0 mm
23:11 44.1 °F /  6.7 °C 37.3 °F /  2.9 °C 30.36 in /  1028 hPa WSW 3.0 mph /  4.8 km/h 4.6 mph /  7.4 km/h 77 % 0.00 in /  0 mm
23:16 44.1 °F /  6.7 °C 37.7 °F /  3.2 °C 30.36 in /  1028 hPa WSW 1.3 mph /  2.1 km/h 4.6 mph /  7.4 km/h 78 % 0.00 in /  0 mm
23:21 44.0 °F /  6.7 °C 37.6 °F /  3.1 °C 30.36 in /  1028 hPa Calm   3.5 mph /  5.6 km/h 78 % 0.00 in /  0 mm
23:26 44.0 °F /  6.7 °C 37.6 °F /  3.1 °C 30.36 in /  1028 hPa SSW 1.2 mph /  1.9 km/h 3.5 mph /  5.6 km/h 78 % 0.00 in /  0 mm
23:31 44.0 °F /  6.7 °C 37.6 °F /  3.1 °C 30.37 in /  1028.3 hPa WSW 1.9 mph /  3.1 km/h 3.5 mph /  5.6 km/h 78 % 0.00 in /  0 mm
23:36 44.0 °F /  6.7 °C 37.6 °F /  3.1 °C 30.37 in /  1028.3 hPa WSW 1.1 mph /  1.8 km/h 3.5 mph /  5.6 km/h 78 % 0.00 in /  0 mm
23:41 44.0 °F /  6.7 °C 37.6 °F /  3.1 °C 30.37 in /  1028.3 hPa WSW 0.8 mph /  1.3 km/h 2.3 mph /  3.7 km/h 78 % 0.00 in /  0 mm
23:46 43.9 °F /  6.6 °C 37.5 °F /  3.1 °C 30.37 in /  1028.3 hPa SW 3.1 mph /  5 km/h 5.8 mph /  9.3 km/h 78 % 0.00 in /  0 mm
23:51 43.8 °F /  6.6 °C 37.4 °F /  3 °C 30.36 in /  1028 hPa Calm   1.2 mph /  1.9 km/h 78 % 0.00 in /  0 mm
23:56 43.8 °F /  6.6 °C 37.4 °F /  3 °C 30.36 in /  1028 hPa Calm   1.2 mph /  1.9 km/h 78 % 0.00 in /  0 mm
Crab Meadow Weather
Compliments of Weather Underground - 3 mb

Script developed by  Jim McMurry - jmcmurry@mwt.net Adapted for the template by  Wim van der Kuil - Leuven-Template.eu

Hurricanes: A large hurricane stirs up more than a million cubic miles of the atmosphere every second. Hurricane winds can kick up 50 foot or higher waves in the open ocean.